Anderson, IN (46011)

10:33 AM EDT on August 31, 2015 (GMT -0400)
Lapel Indiana | | Change Station
CLOSE
Current Station
Personal Weather Station
Location: Anderson, IN
Elevation: 847 ft
Nearby Weather Stations

Elev 847 ft 40.06 °N, 85.81 °W | Updated 6 seconds ago

Partly Cloudy
Partly Cloudy
74.1 °F
Feels Like 72 °F
N
0.0
Wind Variable Wind from SSE
Gusts 0.0 mph

Today
High -- | Low -- °F
--% Chance of Precip.
Yesterday
High -- | Low -- °F
Precip. -- in
7:09 AM 8:16 PM
Waning Gibbous, 95% visible
Pressure 30.14 in
Visibility 10.0 miles
Clouds Scattered Clouds 8000 ft
Heat Index 72 °F
Dew Point 72 °F
Humidity 92%
Rainfall in
Snow Depth Not available.
UV 2 out of 12
Pollen 10.80 out of 12
Air Quality Not available.
Flu Activity Not available.
METAR KAID 311346Z 00000KT 10SM SCT080 23/19 A3014
Pressure 30.14 in
Visibility 10.0 miles
Clouds Scattered Clouds 8000 ft
Heat Index 72 °F
Dew Point 72 °F
Humidity 92%
Rainfall in
Snow Depth Not available.
UV 2 out of 12
Pollen 10.80 out of 12
Air Quality Not available.
Flu Activity Not available.
METAR KAID 311346Z 00000KT 10SM SCT080 23/19 A3014

10-Day Weather Forecast

×

Almanac

Astronomy

Aug. 31, 2015 Rise Set
Actual Time
Civil Twilight
Nautical Twilight
Astronomical Twilight
Moon
Length of Visible Light
Length of Day
Tomorrow will be .
, % of the Moon is Illuminated

Today's Extremes

State Highs State Lows

Community

WunderPhotos

Upload Photos

1,851,248 photos uploaded!

WunderBlogs® & News

Nearby

Air Quality

  Air Quality AQ Index Pollutant
Not available.

Snow Depth

Station Depth Elevation

Earthquake Activity

City Distance Mag. Time & Date
Minimum magnitude displayed is 2.5.

Coastal Water Temperatures

Place Temperature

Stations

Nearby Weather Stations

Station Location Temp. Windchill Dew Point Humidity Wind Precip. Elev Updated Type